Portada
METAR-TAF:

METAR-TAF

Aeroports :

Chlef, Algèria

latitud: 36-13N, longitud: 001-20E, altitud: 143 m

Observació

L'informe es va fer fa 31 minuts, a les 11:00 UTC
Vent 8 kt del Oest/Sud-Oest
Temperatura 12°C
Humitat 88%
Pressió 1027 hPa
Visibilitat 10 km o més
Escasses núvols a una alçada de 1600 ft
Núvols disperses a una alçada de 2600 ft

METAR: DAOI 151100Z 24008KT 9999 FEW016 SCT026 12/10 Q1027

Hora: 12:31 (11:31 UTC)

Pronòstic

L'informe es va fer fa 6 hores i 31 minuts, a les 05:00 UTC
Pronòstic vàlid del 15 a les 06 UTC al 16 a les 06 UTC
Vent 2 kt amb direcció variable
Visibilitat 10 km o més
Cel ennuvolat a una alçada de 2600 ft
Evolucionant progressivament
l' 15 a les 09 UTC al 15 a les 12 UTC
Vent 12 kt del Sud-Oest
Evolucionant progressivament
l' 15 a les 18 UTC al 15 a les 21 UTC
Vent 2 kt amb direcció variable

TAF: DAOI 150500Z 1506/1606 VRB02KT 9999 BKN026 BECMG 1509/1512 23012KT BECMG 1518/1521 VRB02KT

Observacions i pronòstics meteorològics de més de 4000 aeroports (METAR i TAF).

Les estacions disponibles són els punts grocs i vermells al mapa.

Posi el ratolí al punt desitjat per veure el nom de l'estació.

Feu clic per veure les observacions i els pronòstics meteorològics.

Per canviar el mapa: feu clic els botons verds amb una creu de color negre per apropar; al botó verd amb un guió per allunyar la imatge; o en les fletxes verdes per a mapes adjacents.


METAR-TAF: